sensor_id;sensor_type;location;lat;lon;timestamp;pressure;altitude;pressure_sealevel;temperature;humidity
70841;BME280;58465;51.534;9.934;2023-07-09T00:00:59;100224.94;;;24.81;48.10
70841;BME280;58465;51.534;9.934;2023-07-09T00:03:24;100229.69;;;24.79;48.03
70841;BME280;58465;51.534;9.934;2023-07-09T00:05:49;100238.22;;;24.74;48.37
70841;BME280;58465;51.534;9.934;2023-07-09T00:08:25;100238.75;;;24.80;48.32
70841;BME280;58465;51.534;9.934;2023-07-09T00:10:51;100238.00;;;24.77;48.50
70841;BME280;58465;51.534;9.934;2023-07-09T00:13:16;100243.56;;;24.76;48.41
70841;BME280;58465;51.534;9.934;2023-07-09T00:15:42;100233.75;;;24.73;48.37
70841;BME280;58465;51.534;9.934;2023-07-09T00:18:07;100236.38;;;24.75;48.74
70841;BME280;58465;51.534;9.934;2023-07-09T00:20:33;100231.53;;;24.78;48.60
70841;BME280;58465;51.534;9.934;2023-07-09T00:22:58;100228.16;;;24.75;48.40
70841;BME280;58465;51.534;9.934;2023-07-09T00:25:23;100239.09;;;24.75;48.44
70841;BME280;58465;51.534;9.934;2023-07-09T00:27:49;100239.59;;;24.80;48.23
70841;BME280;58465;51.534;9.934;2023-07-09T00:30:19;100244.44;;;24.76;48.39
70841;BME280;58465;51.534;9.934;2023-07-09T00:32:45;100238.84;;;24.78;48.32
70841;BME280;58465;51.534;9.934;2023-07-09T00:35:11;100232.97;;;24.71;48.53
70841;BME280;58465;51.534;9.934;2023-07-09T00:37:37;100236.38;;;24.40;49.68
70841;BME280;58465;51.534;9.934;2023-07-09T00:40:02;100234.19;;;24.56;49.14
70841;BME280;58465;51.534;9.934;2023-07-09T00:42:27;100233.59;;;24.64;49.15
70841;BME280;58465;51.534;9.934;2023-07-09T00:44:54;100229.75;;;24.66;48.68
70841;BME280;58465;51.534;9.934;2023-07-09T00:49:48;100243.91;;;24.60;49.24
70841;BME280;58465;51.534;9.934;2023-07-09T00:52:28;100243.31;;;24.68;49.12
70841;BME280;58465;51.534;9.934;2023-07-09T00:54:58;100248.00;;;24.66;49.09
70841;BME280;58465;51.534;9.934;2023-07-09T00:57:24;100249.88;;;24.41;49.93
70841;BME280;58465;51.534;9.934;2023-07-09T00:59:53;100245.56;;;24.39;49.64
70841;BME280;58465;51.534;9.934;2023-07-09T01:02:20;100246.81;;;24.46;49.78
70841;BME280;58465;51.534;9.934;2023-07-09T01:04:49;100250.19;;;24.50;49.37
70841;BME280;58465;51.534;9.934;2023-07-09T01:07:15;100247.19;;;24.53;49.49
70841;BME280;58465;51.534;9.934;2023-07-09T01:09:41;100245.34;;;24.53;49.42
70841;BME280;58465;51.534;9.934;2023-07-09T01:12:07;100241.75;;;24.53;49.08
70841;BME280;58465;51.534;9.934;2023-07-09T01:14:33;100243.38;;;24.55;48.87
70841;BME280;58465;51.534;9.934;2023-07-09T01:17:02;100242.00;;;24.50;49.20
70841;BME280;58465;51.534;9.934;2023-07-09T01:19:30;100234.69;;;24.50;49.17
70841;BME280;58465;51.534;9.934;2023-07-09T01:22:05;100237.16;;;24.53;48.98
70841;BME280;58465;51.534;9.934;2023-07-09T01:24:53;100228.09;;;24.53;48.97
70841;BME280;58465;51.534;9.934;2023-07-09T01:27:21;100236.53;;;24.50;48.88
70841;BME280;58465;51.534;9.934;2023-07-09T01:29:46;100237.63;;;24.47;48.87
70841;BME280;58465;51.534;9.934;2023-07-09T01:32:14;100235.25;;;24.42;48.94
70841;BME280;58465;51.534;9.934;2023-07-09T01:34:40;100229.78;;;24.42;48.85
70841;BME280;58465;51.534;9.934;2023-07-09T01:37:06;100232.50;;;24.42;48.76
70841;BME280;58465;51.534;9.934;2023-07-09T01:39:31;100232.66;;;24.41;49.13
70841;BME280;58465;51.534;9.934;2023-07-09T01:41:56;100237.25;;;24.40;49.18
70841;BME280;58465;51.534;9.934;2023-07-09T01:44:21;100237.47;;;24.37;48.87
70841;BME280;58465;51.534;9.934;2023-07-09T01:46:48;100239.31;;;24.37;48.93
70841;BME280;58465;51.534;9.934;2023-07-09T01:49:13;100236.72;;;24.35;49.13
70841;BME280;58465;51.534;9.934;2023-07-09T01:51:40;100239.31;;;24.37;49.14
70841;BME280;58465;51.534;9.934;2023-07-09T01:54:05;100237.59;;;24.36;49.00
70841;BME280;58465;51.534;9.934;2023-07-09T01:56:31;100244.91;;;24.35;48.72
70841;BME280;58465;51.534;9.934;2023-07-09T01:58:56;100246.88;;;24.33;49.13
70841;BME280;58465;51.534;9.934;2023-07-09T02:01:26;100247.75;;;24.34;48.82
70841;BME280;58465;51.534;9.934;2023-07-09T02:03:52;100241.53;;;24.32;49.03
70841;BME280;58465;51.534;9.934;2023-07-09T02:06:17;100237.19;;;24.29;49.02
70841;BME280;58465;51.534;9.934;2023-07-09T02:08:44;100238.19;;;24.28;49.04
70841;BME280;58465;51.534;9.934;2023-07-09T02:11:10;100238.28;;;24.27;48.98
70841;BME280;58465;51.534;9.934;2023-07-09T02:13:35;100240.38;;;24.23;48.98
70841;BME280;58465;51.534;9.934;2023-07-09T02:16:00;100244.84;;;24.24;48.92
70841;BME280;58465;51.534;9.934;2023-07-09T02:18:25;100241.34;;;24.22;49.08
70841;BME280;58465;51.534;9.934;2023-07-09T02:20:50;100235.06;;;24.22;49.30
70841;BME280;58465;51.534;9.934;2023-07-09T02:23:15;100243.09;;;24.23;48.96
70841;BME280;58465;51.534;9.934;2023-07-09T02:25:41;100233.28;;;24.21;49.00
70841;BME280;58465;51.534;9.934;2023-07-09T02:28:06;100232.41;;;24.20;48.99
70841;BME280;58465;51.534;9.934;2023-07-09T02:30:31;100238.94;;;24.18;49.16
70841;BME280;58465;51.534;9.934;2023-07-09T02:32:56;100230.88;;;24.16;49.09
70841;BME280;58465;51.534;9.934;2023-07-09T02:35:22;100225.63;;;24.13;49.28
70841;BME280;58465;51.534;9.934;2023-07-09T02:37:47;100226.50;;;24.14;49.07
70841;BME280;58465;51.534;9.934;2023-07-09T02:40:12;100225.63;;;24.13;49.06
70841;BME280;58465;51.534;9.934;2023-07-09T02:42:38;100235.69;;;24.13;49.10
70841;BME280;58465;51.534;9.934;2023-07-09T02:45:03;100237.69;;;24.11;48.94
70841;BME280;58465;51.534;9.934;2023-07-09T02:47:29;100236.81;;;24.10;49.38
70841;BME280;58465;51.534;9.934;2023-07-09T02:49:54;100229.59;;;24.09;49.27
70841;BME280;58465;51.534;9.934;2023-07-09T02:52:19;100234.31;;;24.07;49.26
70841;BME280;58465;51.534;9.934;2023-07-09T02:54:44;100230.69;;;24.07;49.06
70841;BME280;58465;51.534;9.934;2023-07-09T02:57:09;100221.75;;;24.04;48.75
70841;BME280;58465;51.534;9.934;2023-07-09T02:59:35;100223.59;;;24.04;48.74
70841;BME280;58465;51.534;9.934;2023-07-09T03:02:00;100233.53;;;24.05;48.91
70841;BME280;58465;51.534;9.934;2023-07-09T03:04:25;100231.06;;;24.02;48.80
70841;BME280;58465;51.534;9.934;2023-07-09T03:06:51;100229.31;;;24.01;48.95
70841;BME280;58465;51.534;9.934;2023-07-09T03:09:17;100232.03;;;24.01;48.65
70841;BME280;58465;51.534;9.934;2023-07-09T03:11:42;100230.41;;;23.98;48.84
70841;BME280;58465;51.534;9.934;2023-07-09T03:14:07;100240.38;;;23.87;49.16
70841;BME280;58465;51.534;9.934;2023-07-09T03:16:33;100239.75;;;23.83;49.07
70841;BME280;58465;51.534;9.934;2023-07-09T03:18:58;100236.56;;;23.89;48.80
70841;BME280;58465;51.534;9.934;2023-07-09T03:21:24;100242.00;;;23.89;48.91
70841;BME280;58465;51.534;9.934;2023-07-09T03:23:50;100249.44;;;23.87;48.97
70841;BME280;58465;51.534;9.934;2023-07-09T03:26:15;100252.06;;;23.89;48.70
70841;BME280;58465;51.534;9.934;2023-07-09T03:28:41;100246.69;;;23.87;48.81
70841;BME280;58465;51.534;9.934;2023-07-09T03:31:06;100240.28;;;23.88;48.65
70841;BME280;58465;51.534;9.934;2023-07-09T03:33:31;100247.69;;;23.86;49.03
70841;BME280;58465;51.534;9.934;2023-07-09T03:35:56;100252.53;;;23.83;49.01
70841;BME280;58465;51.534;9.934;2023-07-09T03:38:22;100256.13;;;23.83;48.68
70841;BME280;58465;51.534;9.934;2023-07-09T03:40:53;100260.69;;;23.83;48.84
70841;BME280;58465;51.534;9.934;2023-07-09T03:43:19;100260.03;;;23.79;48.75
70841;BME280;58465;51.534;9.934;2023-07-09T03:45:44;100267.25;;;23.80;49.09
70841;BME280;58465;51.534;9.934;2023-07-09T03:48:10;100262.22;;;23.74;48.92
70841;BME280;58465;51.534;9.934;2023-07-09T03:50:35;100270.28;;;23.76;48.72
70841;BME280;58465;51.534;9.934;2023-07-09T03:53:00;100266.59;;;23.77;48.86
70841;BME280;58465;51.534;9.934;2023-07-09T03:55:25;100263.53;;;23.81;49.09
70841;BME280;58465;51.534;9.934;2023-07-09T03:57:51;100263.97;;;23.75;48.83
70841;BME280;58465;51.534;9.934;2023-07-09T04:00:16;100262.22;;;23.74;48.72
70841;BME280;58465;51.534;9.934;2023-07-09T04:02:42;100268.69;;;23.73;48.91
70841;BME280;58465;51.534;9.934;2023-07-09T04:05:08;100274.16;;;23.73;48.64
70841;BME280;58465;51.534;9.934;2023-07-09T04:07:34;100274.25;;;23.72;48.75
70841;BME280;58465;51.534;9.934;2023-07-09T04:09:59;100273.38;;;23.71;48.71
70841;BME280;58465;51.534;9.934;2023-07-09T04:12:24;100277.19;;;23.68;49.07
70841;BME280;58465;51.534;9.934;2023-07-09T04:14:49;100273.47;;;23.70;48.90
70841;BME280;58465;51.534;9.934;2023-07-09T04:17:15;100278.84;;;23.71;48.84
70841;BME280;58465;51.534;9.934;2023-07-09T04:19:40;100285.16;;;23.72;48.88
70841;BME280;58465;51.534;9.934;2023-07-09T04:22:05;100277.97;;;23.71;48.90
70841;BME280;58465;51.534;9.934;2023-07-09T04:24:30;100284.38;;;23.70;48.60
70841;BME280;58465;51.534;9.934;2023-07-09T04:26:56;100281.66;;;23.70;48.75
70841;BME280;58465;51.534;9.934;2023-07-09T04:29:22;100286.13;;;23.71;48.48
70841;BME280;58465;51.534;9.934;2023-07-09T04:31:47;100279.91;;;23.68;48.63
70841;BME280;58465;51.534;9.934;2023-07-09T04:34:12;100280.78;;;23.69;48.54
70841;BME280;58465;51.534;9.934;2023-07-09T04:36:37;100279.91;;;23.68;48.80
70841;BME280;58465;51.534;9.934;2023-07-09T04:39:03;100282.75;;;23.67;48.92
70841;BME280;58465;51.534;9.934;2023-07-09T04:41:29;100276.44;;;23.66;48.75
70841;BME280;58465;51.534;9.934;2023-07-09T04:43:54;100281.88;;;23.66;49.06
70841;BME280;58465;51.534;9.934;2023-07-09T04:46:19;100282.13;;;23.63;48.84
70841;BME280;58465;51.534;9.934;2023-07-09T04:48:44;100285.72;;;23.64;48.87
70841;BME280;58465;51.534;9.934;2023-07-09T04:51:10;100292.91;;;23.65;48.77
70841;BME280;58465;51.534;9.934;2023-07-09T04:53:35;100285.59;;;23.65;49.07
70841;BME280;58465;51.534;9.934;2023-07-09T04:56:00;100288.31;;;23.65;49.03
70841;BME280;58465;51.534;9.934;2023-07-09T04:58:27;100295.75;;;23.63;49.20
70841;BME280;58465;51.534;9.934;2023-07-09T05:00:52;100295.97;;;23.60;49.15
70841;BME280;58465;51.534;9.934;2023-07-09T05:03:21;100294.88;;;23.63;49.06
70841;BME280;58465;51.534;9.934;2023-07-09T05:05:46;100300.09;;;23.66;48.99
70841;BME280;58465;51.534;9.934;2023-07-09T05:08:12;100293.03;;;23.63;49.04
70841;BME280;58465;51.534;9.934;2023-07-09T05:10:41;100292.78;;;23.66;49.08
70841;BME280;58465;51.534;9.934;2023-07-09T05:13:06;100289.97;;;23.68;48.87
70841;BME280;58465;51.534;9.934;2023-07-09T05:15:32;100297.25;;;23.67;49.06
70841;BME280;58465;51.534;9.934;2023-07-09T05:17:57;100293.25;;;23.60;49.09
70841;BME280;58465;51.534;9.934;2023-07-09T05:20:22;100287.91;;;23.59;48.78
70841;BME280;58465;51.534;9.934;2023-07-09T05:22:47;100288.44;;;23.64;48.92
70841;BME280;58465;51.534;9.934;2023-07-09T05:25:13;100288.22;;;23.67;48.70
70841;BME280;58465;51.534;9.934;2023-07-09T05:27:38;100289.09;;;23.67;48.86
70841;BME280;58465;51.534;9.934;2023-07-09T05:30:03;100292.56;;;23.70;48.79
70841;BME280;58465;51.534;9.934;2023-07-09T05:32:29;100289.75;;;23.71;48.55
70841;BME280;58465;51.534;9.934;2023-07-09T05:34:54;100288.97;;;23.69;49.00
70841;BME280;58465;51.534;9.934;2023-07-09T05:37:19;100288.75;;;23.72;48.84
70841;BME280;58465;51.534;9.934;2023-07-09T05:39:45;100292.38;;;23.73;48.82
70841;BME280;58465;51.534;9.934;2023-07-09T05:42:10;100288.66;;;23.74;48.63
70841;BME280;58465;51.534;9.934;2023-07-09T05:44:35;100292.38;;;23.73;48.73
70841;BME280;58465;51.534;9.934;2023-07-09T05:47:00;100290.38;;;23.75;48.82
70841;BME280;58465;51.534;9.934;2023-07-09T05:49:25;100293.97;;;23.75;48.67
70841;BME280;58465;51.534;9.934;2023-07-09T05:51:50;100293.09;;;23.75;48.73
70841;BME280;58465;51.534;9.934;2023-07-09T05:54:16;100291.91;;;23.79;48.57
70841;BME280;58465;51.534;9.934;2023-07-09T05:56:41;100291.91;;;23.79;48.62
70841;BME280;58465;51.534;9.934;2023-07-09T05:59:06;100284.47;;;23.81;48.35
70841;BME280;58465;51.534;9.934;2023-07-09T06:01:31;100296.16;;;23.83;48.41
70841;BME280;58465;51.534;9.934;2023-07-09T06:03:57;100295.09;;;23.73;48.87
70841;BME280;58465;51.534;9.934;2023-07-09T06:06:22;100297.47;;;23.77;48.41
70841;BME280;58465;51.534;9.934;2023-07-09T06:08:48;100303.13;;;23.87;48.10
70841;BME280;58465;51.534;9.934;2023-07-09T06:11:13;100306.06;;;23.84;48.13
70841;BME280;58465;51.534;9.934;2023-07-09T06:13:38;100306.19;;;23.82;48.13
70841;BME280;58465;51.534;9.934;2023-07-09T06:16:04;100305.84;;;23.87;47.98
70841;BME280;58465;51.534;9.934;2023-07-09T06:18:29;100302.25;;;23.86;48.32
70841;BME280;58465;51.534;9.934;2023-07-09T06:20:55;100299.75;;;23.83;48.20
70841;BME280;58465;51.534;9.934;2023-07-09T06:23:21;100306.25;;;23.93;48.01
70841;BME280;58465;51.534;9.934;2023-07-09T06:25:46;100306.91;;;23.97;47.87
70841;BME280;58465;51.534;9.934;2023-07-09T06:28:13;100303.19;;;23.98;47.95
70841;BME280;58465;51.534;9.934;2023-07-09T06:30:39;100303.31;;;23.96;48.07
70841;BME280;58465;51.534;9.934;2023-07-09T06:33:04;100293.38;;;23.95;47.95
70841;BME280;58465;51.534;9.934;2023-07-09T06:35:29;100302.13;;;24.00;47.79
70841;BME280;58465;51.534;9.934;2023-07-09T06:37:54;100303.72;;;24.03;47.69
70841;BME280;58465;51.534;9.934;2023-07-09T06:40:19;100311.56;;;24.08;47.66
70841;BME280;58465;51.534;9.934;2023-07-09T06:42:45;100314.53;;;24.04;47.67
70841;BME280;58465;51.534;9.934;2023-07-09T06:45:10;100317.16;;;24.06;47.48
70841;BME280;58465;51.534;9.934;2023-07-09T06:47:35;100311.69;;;24.06;47.60
70841;BME280;58465;51.534;9.934;2023-07-09T06:50:00;100304.25;;;24.08;47.45
70841;BME280;58465;51.534;9.934;2023-07-09T06:52:25;100309.72;;;24.08;47.56
70841;BME280;58465;51.534;9.934;2023-07-09T06:54:50;100314.09;;;24.11;47.57
70841;BME280;58465;51.534;9.934;2023-07-09T06:57:16;100306.63;;;24.13;47.33
70841;BME280;58465;51.534;9.934;2023-07-09T06:59:41;100298.81;;;24.08;47.66
70841;BME280;58465;51.534;9.934;2023-07-09T07:02:07;100306.69;;;24.00;48.07
70841;BME280;58465;51.534;9.934;2023-07-09T07:04:32;100296.97;;;23.96;48.33
70841;BME280;58465;51.534;9.934;2023-07-09T07:06:58;100301.00;;;24.03;48.04
70841;BME280;58465;51.534;9.934;2023-07-09T07:09:23;100308.09;;;24.05;47.64
70841;BME280;58465;51.534;9.934;2023-07-09T07:11:49;100310.78;;;24.18;47.26
70841;BME280;58465;51.534;9.934;2023-07-09T07:14:14;100303.78;;;24.14;47.38
70841;BME280;58465;51.534;9.934;2023-07-09T07:16:39;100311.34;;;24.23;47.08
70841;BME280;58465;51.534;9.934;2023-07-09T07:19:04;100304.44;;;24.30;46.75
70841;BME280;58465;51.534;9.934;2023-07-09T07:21:30;100301.56;;;24.32;46.76
70841;BME280;58465;51.534;9.934;2023-07-09T07:23:56;100308.06;;;24.31;46.73
70841;BME280;58465;51.534;9.934;2023-07-09T07:26:21;100304.19;;;24.33;46.78
70841;BME280;58465;51.534;9.934;2023-07-09T07:28:46;100303.69;;;24.28;46.97
70841;BME280;58465;51.534;9.934;2023-07-09T07:31:11;100300.09;;;24.28;47.13
70841;BME280;58465;51.534;9.934;2023-07-09T07:33:38;100306.06;;;24.33;46.77
70841;BME280;58465;51.534;9.934;2023-07-09T07:36:04;100302.00;;;24.38;46.76
70841;BME280;58465;51.534;9.934;2023-07-09T07:38:30;100306.22;;;24.42;46.66
70841;BME280;58465;51.534;9.934;2023-07-09T07:40:55;100301.63;;;24.43;46.82
70841;BME280;58465;51.534;9.934;2023-07-09T07:43:20;100298.47;;;24.49;46.35
70841;BME280;58465;51.534;9.934;2023-07-09T07:45:47;100296.72;;;24.48;46.63
70841;BME280;58465;51.534;9.934;2023-07-09T07:48:12;100292.03;;;24.50;46.57
70841;BME280;58465;51.534;9.934;2023-07-09T07:50:37;100294.75;;;24.50;46.56
70841;BME280;58465;51.534;9.934;2023-07-09T07:53:03;100300.94;;;24.52;46.44
70841;BME280;58465;51.534;9.934;2023-07-09T07:55:28;100300.72;;;24.55;46.55
70841;BME280;58465;51.534;9.934;2023-07-09T07:57:54;100300.50;;;24.58;46.83
70841;BME280;58465;51.534;9.934;2023-07-09T08:00:21;100291.81;;;24.64;46.50
70841;BME280;58465;51.534;9.934;2023-07-09T08:02:47;100292.19;;;24.71;46.17
70841;BME280;58465;51.534;9.934;2023-07-09T08:05:12;100289.72;;;24.68;46.43
70841;BME280;58465;51.534;9.934;2023-07-09T08:07:37;100289.47;;;24.71;46.34
70841;BME280;58465;51.534;9.934;2023-07-09T08:10:02;100283.91;;;24.72;46.47
70841;BME280;58465;51.534;9.934;2023-07-09T08:12:27;100283.91;;;24.72;46.21
70841;BME280;58465;51.534;9.934;2023-07-09T08:14:52;100282.56;;;24.78;46.47
70841;BME280;58465;51.534;9.934;2023-07-09T08:17:18;100288.41;;;24.85;46.19
70841;BME280;58465;51.534;9.934;2023-07-09T08:19:45;100285.34;;;24.89;46.19
70841;BME280;58465;51.534;9.934;2023-07-09T08:22:11;100284.59;;;24.87;45.95
70841;BME280;58465;51.534;9.934;2023-07-09T08:24:36;100281.28;;;24.95;46.14
70841;BME280;58465;51.534;9.934;2023-07-09T08:27:01;100277.31;;;24.99;45.96
70841;BME280;58465;51.534;9.934;2023-07-09T08:29:28;100270.84;;;25.00;45.92
70841;BME280;58465;51.534;9.934;2023-07-09T08:31:53;100271.38;;;25.05;45.80
70841;BME280;58465;51.534;9.934;2023-07-09T08:34:18;100274.34;;;25.02;45.99
70841;BME280;58465;51.534;9.934;2023-07-09T08:36:43;100267.00;;;25.02;45.97
70841;BME280;58465;51.534;9.934;2023-07-09T08:39:09;100266.03;;;25.03;45.84
70841;BME280;58465;51.534;9.934;2023-07-09T08:44:24;100262.56;;;25.12;45.44
70841;BME280;58465;51.534;9.934;2023-07-09T08:47:00;100268.13;;;25.11;45.57
70841;BME280;58465;51.534;9.934;2023-07-09T08:49:33;100265.28;;;25.12;45.31
70841;BME280;58465;51.534;9.934;2023-07-09T08:51:59;100258.72;;;25.15;45.41
70841;BME280;58465;51.534;9.934;2023-07-09T08:54:26;100259.31;;;25.19;45.18
70841;BME280;58465;51.534;9.934;2023-07-09T08:56:52;100263.69;;;25.21;45.12
70841;BME280;58465;51.534;9.934;2023-07-09T08:59:18;100266.31;;;25.23;45.28
70841;BME280;58465;51.534;9.934;2023-07-09T09:01:50;100268.28;;;25.21;45.36
70841;BME280;58465;51.534;9.934;2023-07-09T09:04:24;100266.41;;;25.21;45.19
70841;BME280;58465;51.534;9.934;2023-07-09T09:09:35;100267.28;;;25.22;45.65
70841;BME280;58465;51.534;9.934;2023-07-09T09:12:37;100264.94;;;25.28;45.94
70841;BME280;58465;51.534;9.934;2023-07-09T09:14:58;100261.34;;;25.28;45.84
70841;BME280;58465;51.534;9.934;2023-07-09T09:17:25;100254.88;;;25.29;45.79
70841;BME280;58465;51.534;9.934;2023-07-09T09:19:55;100256.50;;;25.31;45.64
70841;BME280;58465;51.534;9.934;2023-07-09T09:22:21;100258.88;;;25.36;45.82
70841;BME280;58465;51.534;9.934;2023-07-09T09:25:05;100261.22;;;25.40;45.67
70841;BME280;58465;51.534;9.934;2023-07-09T09:27:36;100257.59;;;25.40;45.82
70841;BME280;58465;51.534;9.934;2023-07-09T09:30:02;100258.59;;;25.39;45.87
70841;BME280;58465;51.534;9.934;2023-07-09T09:32:30;100259.34;;;25.41;45.85
70841;BME280;58465;51.534;9.934;2023-07-09T09:34:56;100260.47;;;25.38;46.20
70841;BME280;58465;51.534;9.934;2023-07-09T09:37:23;100270.28;;;25.41;46.04
70841;BME280;58465;51.534;9.934;2023-07-09T09:39:49;100267.66;;;25.39;46.67
70841;BME280;58465;51.534;9.934;2023-07-09T09:42:14;100267.56;;;25.41;46.07
70841;BME280;58465;51.534;9.934;2023-07-09T09:44:43;100268.19;;;25.44;46.02
70841;BME280;58465;51.534;9.934;2023-07-09T09:47:09;100263.31;;;25.48;46.07
70841;BME280;58465;51.534;9.934;2023-07-09T09:49:39;100263.97;;;25.51;45.90
70841;BME280;58465;51.534;9.934;2023-07-09T09:52:06;100260.50;;;25.61;46.42
70841;BME280;58465;51.534;9.934;2023-07-09T09:54:31;100262.13;;;25.63;46.13
70841;BME280;58465;51.534;9.934;2023-07-09T09:56:56;100261.38;;;25.61;46.62
70841;BME280;58465;51.534;9.934;2023-07-09T09:59:27;100266.22;;;25.69;46.47
70841;BME280;58465;51.534;9.934;2023-07-09T10:01:56;100268.97;;;25.69;46.22
70841;BME280;58465;51.534;9.934;2023-07-09T10:04:21;100264.34;;;25.69;46.35
70841;BME280;58465;51.534;9.934;2023-07-09T10:06:49;100262.25;;;25.73;46.54
70841;BME280;58465;51.534;9.934;2023-07-09T10:12:04;100269.06;;;25.67;46.33
70841;BME280;58465;51.534;9.934;2023-07-09T10:14:44;100261.03;;;25.66;46.42
70841;BME280;58465;51.534;9.934;2023-07-09T10:17:17;100265.63;;;25.65;46.80
70841;BME280;58465;51.534;9.934;2023-07-09T10:19:47;100264.13;;;25.72;46.86
70841;BME280;58465;51.534;9.934;2023-07-09T10:22:16;100261.84;;;25.88;47.23
70841;BME280;58465;51.534;9.934;2023-07-09T10:24:49;100270.56;;;25.94;46.66
70841;BME280;58465;51.534;9.934;2023-07-09T10:27:18;100262.25;;;25.84;46.38
70841;BME280;58465;51.534;9.934;2023-07-09T10:29:55;100259.63;;;25.82;46.43
70841;BME280;58465;51.534;9.934;2023-07-09T10:34:56;100252.13;;;25.96;46.43
70841;BME280;58465;51.534;9.934;2023-07-09T10:40:10;100251.22;;;26.06;46.21
70841;BME280;58465;51.534;9.934;2023-07-09T10:42:41;100247.03;;;26.02;45.98
70841;BME280;58465;51.534;9.934;2023-07-09T10:45:12;100245.16;;;26.03;45.62
70841;BME280;58465;51.534;9.934;2023-07-09T10:47:39;100242.91;;;26.08;45.64
70841;BME280;58465;51.534;9.934;2023-07-09T10:50:09;100243.31;;;26.03;45.84
70841;BME280;58465;51.534;9.934;2023-07-09T10:52:36;100241.69;;;26.01;45.71
70841;BME280;58465;51.534;9.934;2023-07-09T10:55:15;100241.91;;;26.09;45.90
70841;BME280;58465;51.534;9.934;2023-07-09T11:00:17;100237.19;;;26.11;45.58
70841;BME280;58465;51.534;9.934;2023-07-09T11:02:42;100231.19;;;26.06;45.70
70841;BME280;58465;51.534;9.934;2023-07-09T11:05:08;100235.97;;;26.04;46.19
70841;BME280;58465;51.534;9.934;2023-07-09T11:07:41;100234.09;;;26.04;45.97
70841;BME280;58465;51.534;9.934;2023-07-09T11:12:40;100242.31;;;26.04;46.00
70841;BME280;58465;51.534;9.934;2023-07-09T11:15:16;100243.03;;;26.06;46.26
70841;BME280;58465;51.534;9.934;2023-07-09T11:17:44;100236.56;;;26.07;45.79
70841;BME280;58465;51.534;9.934;2023-07-09T11:20:18;100226.72;;;26.05;45.97
70841;BME280;58465;51.534;9.934;2023-07-09T11:22:50;100230.09;;;26.08;45.80
70841;BME280;58465;51.534;9.934;2023-07-09T11:25:15;100229.09;;;26.09;46.00
70841;BME280;58465;51.534;9.934;2023-07-09T11:27:52;100227.94;;;26.23;46.00
70841;BME280;58465;51.534;9.934;2023-07-09T11:30:25;100223.09;;;26.27;45.97
70841;BME280;58465;51.534;9.934;2023-07-09T11:32:56;100218.56;;;26.25;45.82
70841;BME280;58465;51.534;9.934;2023-07-09T11:35:23;100222.09;;;26.28;45.78
70841;BME280;58465;51.534;9.934;2023-07-09T11:37:48;100218.56;;;26.37;46.12
70841;BME280;58465;51.534;9.934;2023-07-09T11:40:14;100216.78;;;26.47;45.86
70841;BME280;58465;51.534;9.934;2023-07-09T11:42:55;100211.44;;;26.45;45.63
70841;BME280;58465;51.534;9.934;2023-07-09T11:45:28;100215.81;;;26.37;46.09
70841;BME280;58465;51.534;9.934;2023-07-09T11:48:26;100215.69;;;26.38;45.84
70841;BME280;58465;51.534;9.934;2023-07-09T11:50:46;100211.72;;;26.42;45.90
70841;BME280;58465;51.534;9.934;2023-07-09T11:53:20;100203.75;;;26.39;45.96
70841;BME280;58465;51.534;9.934;2023-07-09T11:55:47;100202.88;;;26.39;45.70
70841;BME280;58465;51.534;9.934;2023-07-09T11:58:13;100203.63;;;26.41;45.69
70841;BME280;58465;51.534;9.934;2023-07-09T12:00:39;100206.06;;;26.44;45.47
70841;BME280;58465;51.534;9.934;2023-07-09T12:03:06;100209.69;;;26.44;45.71
70841;BME280;58465;51.534;9.934;2023-07-09T12:05:32;100214.78;;;26.49;45.43
70841;BME280;58465;51.534;9.934;2023-07-09T12:07:58;100207.19;;;26.52;45.53
70841;BME280;58465;51.534;9.934;2023-07-09T12:10:25;100204.91;;;26.57;45.34
70841;BME280;58465;51.534;9.934;2023-07-09T12:12:55;100200.97;;;26.50;45.52
70841;BME280;58465;51.534;9.934;2023-07-09T12:15:22;100196.75;;;26.67;45.56
70841;BME280;58465;51.534;9.934;2023-07-09T12:17:54;100199.75;;;26.85;44.77
70841;BME280;58465;51.534;9.934;2023-07-09T12:20:20;100188.16;;;26.72;45.11
70841;BME280;58465;51.534;9.934;2023-07-09T12:22:45;100194.22;;;26.75;45.16
70841;BME280;58465;51.534;9.934;2023-07-09T12:25:18;100187.47;;;26.79;45.12
70841;BME280;58465;51.534;9.934;2023-07-09T12:27:44;100189.06;;;26.82;45.12
70841;BME280;58465;51.534;9.934;2023-07-09T12:30:10;100176.38;;;26.81;44.81
70841;BME280;58465;51.534;9.934;2023-07-09T12:32:42;100172.19;;;26.98;44.96
70841;BME280;58465;51.534;9.934;2023-07-09T12:35:11;100169.97;;;27.22;44.88
70841;BME280;58465;51.534;9.934;2023-07-09T12:37:37;100179.03;;;27.43;44.48
70841;BME280;58465;51.534;9.934;2023-07-09T12:40:03;100170.63;;;27.35;44.33
70841;BME280;58465;51.534;9.934;2023-07-09T12:42:30;100168.28;;;27.30;44.32
70841;BME280;58465;51.534;9.934;2023-07-09T12:44:56;100171.34;;;27.37;44.44
70841;BME280;58465;51.534;9.934;2023-07-09T12:47:21;100166.00;;;27.36;44.18
70841;BME280;58465;51.534;9.934;2023-07-09T12:49:48;100163.09;;;27.27;44.64
70841;BME280;58465;51.534;9.934;2023-07-09T12:52:21;100159.22;;;27.40;44.13
70841;BME280;58465;51.534;9.934;2023-07-09T12:54:56;100155.66;;;27.49;43.88
70841;BME280;58465;51.534;9.934;2023-07-09T12:57:21;100146.56;;;27.48;43.71
70841;BME280;58465;51.534;9.934;2023-07-09T12:59:47;100151.88;;;27.50;43.61
70841;BME280;58465;51.534;9.934;2023-07-09T13:02:23;100143.09;;;27.46;43.35
70841;BME280;58465;51.534;9.934;2023-07-09T13:04:50;100139.63;;;27.54;43.29
70841;BME280;58465;51.534;9.934;2023-07-09T13:07:30;100132.41;;;27.53;43.31
70841;BME280;58465;51.534;9.934;2023-07-09T13:10:03;100130.25;;;27.47;43.63